Time;durP1;ratioP1;P1;durP2;ratioP2;P2;SDS_P1;SDS_P2;PMS_P1;PMS_P2;Temp;Humidity;BMP_temperature;BMP_pressure;BME280_temperature;BME280_humidity;BME280_pressure;Samples;Min_cycle;Max_cycle;Signal;HPM_P1;HPM_P2
2022/07/26 00:00:04;;;;;;;3.47;1.67;;;;;;;12.46;96.53;101703.09;5012009;28;20037;-76
2022/07/26 00:02:30;;;;;;;4.18;1.73;;;;;;;12.46;97.03;101700.38;5035793;28;20474;-76
2022/07/26 00:04:56;;;;;;;5.65;1.48;;;;;;;12.44;96.76;101706.94;5051827;28;20131;-76
2022/07/26 00:07:21;;;;;;;3.33;1.63;;;;;;;12.44;96.91;101709.66;5031406;28;20056;-77
2022/07/26 00:09:47;;;;;;;4.22;1.42;;;;;;;12.43;97.01;101708.78;5054276;28;20040;-77
2022/07/26 00:12:13;;;;;;;2.97;1.35;;;;;;;12.40;97.03;101706.41;5035933;28;20028;-77
2022/07/26 00:14:38;;;;;;;10.25;1.92;;;;;;;12.43;97.22;101719.56;5032673;28;20145;-77
2022/07/26 00:17:04;;;;;;;3.65;1.50;;;;;;;12.34;97.08;101695.47;5051285;28;20024;-77
2022/07/26 00:19:30;;;;;;;1.65;1.15;;;;;;;12.36;97.01;101712.28;5049760;28;20580;-75
2022/07/26 00:24:40;;;;;;;5.57;1.50;;;;;;;12.35;97.06;101710.63;5035793;28;20029;-77
2022/07/26 00:27:06;;;;;;;6.10;1.73;;;;;;;12.31;97.37;101716.34;5047012;28;20036;-75
2022/07/26 00:29:31;;;;;;;1.77;0.98;;;;;;;12.16;97.80;101693.69;5046065;28;20044;-75
2022/07/26 00:31:57;;;;;;;3.17;1.40;;;;;;;12.25;97.82;101708.91;5053504;28;20028;-75
2022/07/26 00:34:22;;;;;;;3.75;1.55;;;;;;;12.28;97.52;101715.84;5038047;28;20028;-75
2022/07/26 00:36:48;;;;;;;4.05;1.88;;;;;;;12.23;97.72;101708.22;5031780;28;20491;-75
2022/07/26 00:39:14;;;;;;;3.45;1.42;;;;;;;12.23;97.68;101708.22;5034262;28;20028;-76
2022/07/26 00:41:39;;;;;;;3.92;1.55;;;;;;;12.19;97.53;101706.84;5061260;28;20033;-77
2022/07/26 00:44:05;;;;;;;6.70;1.70;;;;;;;12.13;97.71;101703.97;5037478;28;20042;-75
2022/07/26 00:46:30;;;;;;;5.00;1.55;;;;;;;12.12;98.26;101713.94;5031849;28;20033;-76
2022/07/26 00:48:56;;;;;;;7.40;1.83;;;;;;;12.07;98.90;101714.41;5032768;28;20036;-76
2022/07/26 00:51:22;;;;;;;6.80;1.90;;;;;;;11.93;99.36;101695.28;5033625;28;20036;-76
2022/07/26 00:53:48;;;;;;;3.47;1.50;;;;;;;12.01;99.80;101715.06;5054962;28;20039;-77
2022/07/26 00:56:14;;;;;;;7.78;1.58;;;;;;;12.01;100.00;101722.28;5033518;28;20125;-76
2022/07/26 00:58:41;;;;;;;6.30;1.67;;;;;;;11.99;100.00;101718.94;5021312;28;20086;-77
2022/07/26 01:01:07;;;;;;;3.80;1.50;;;;;;;11.90;100.00;101709.09;5030746;28;21491;-75
2022/07/26 01:03:33;;;;;;;4.75;1.75;;;;;;;11.99;100.00;101719.78;5038847;28;20394;-76
2022/07/26 01:05:58;;;;;;;4.15;1.58;;;;;;;11.99;100.00;101713.53;5048161;28;20036;-75
2022/07/26 01:08:24;;;;;;;6.53;1.52;;;;;;;11.97;100.00;101720.94;5010852;28;20036;-75
2022/07/26 01:10:50;;;;;;;4.95;1.58;;;;;;;11.99;100.00;101718.94;5033519;28;20667;-78
2022/07/26 01:13:20;;;;;;;3.47;1.60;;;;;;;11.94;100.00;101705.09;5026198;28;20029;-77
2022/07/26 01:15:45;;;;;;;7.00;1.60;;;;;;;11.91;100.00;101713.47;5018313;28;20033;-76
2022/07/26 01:18:11;;;;;;;2.75;1.20;;;;;;;11.72;100.00;101688.41;5034506;28;20201;-75
2022/07/26 01:20:40;;;;;;;7.80;1.98;;;;;;;11.87;100.00;101716.50;5010700;28;20042;-76
2022/07/26 01:23:06;;;;;;;4.15;1.52;;;;;;;11.87;100.00;101705.72;5033820;28;20055;-75
2022/07/26 01:25:34;;;;;;;6.53;2.15;;;;;;;11.92;100.00;101704.41;5033738;28;20044;-75
2022/07/26 01:28:00;;;;;;;3.58;1.73;;;;;;;11.87;100.00;101710.25;5025307;28;20131;-76
2022/07/26 01:30:25;;;;;;;3.08;1.20;;;;;;;11.86;100.00;101704.03;5018976;28;21456;-76
2022/07/26 01:32:51;;;;;;;3.35;1.13;;;;;;;11.84;100.00;101697.94;5028661;28;20064;-76
2022/07/26 01:35:17;;;;;;;3.50;1.10;;;;;;;11.84;100.00;101699.78;5047476;28;20028;-75
2022/07/26 01:37:42;;;;;;;3.88;1.58;;;;;;;11.79;99.94;101697.56;5051193;28;20102;-76
2022/07/26 01:40:09;;;;;;;5.97;1.48;;;;;;;11.81;99.99;101700.94;5029854;28;20109;-75
2022/07/26 01:42:34;;;;;;;3.20;1.25;;;;;;;11.79;99.66;101704.81;5056741;28;21358;-75
2022/07/26 01:45:00;;;;;;;3.70;1.45;;;;;;;11.69;99.65;101686.06;5037968;28;20539;-75
2022/07/26 01:47:26;;;;;;;4.50;1.42;;;;;;;11.79;100.00;101700.25;5041444;28;20033;-76
2022/07/26 01:49:52;;;;;;;4.93;1.15;;;;;;;11.72;100.00;101691.13;5025214;28;20399;-75
2022/07/26 01:52:17;;;;;;;7.45;1.98;;;;;;;11.68;99.94;101700.53;5032987;28;20089;-75
2022/07/26 01:54:43;;;;;;;3.15;1.40;;;;;;;11.73;100.00;101708.16;5033399;28;20036;-75
2022/07/26 01:57:09;;;;;;;4.63;1.33;;;;;;;11.69;100.00;101685.22;5027713;28;20029;-75
2022/07/26 01:59:37;;;;;;;5.88;1.63;;;;;;;11.70;99.81;101686.91;5025923;28;20051;-75
2022/07/26 02:02:03;;;;;;;6.68;1.20;;;;;;;11.69;99.91;101696.00;5038032;28;20052;-76
2022/07/26 02:07:13;;;;;;;3.65;1.13;;;;;;;11.67;99.67;101696.16;5027243;28;20044;-76
2022/07/26 02:09:38;;;;;;;2.53;1.13;;;;;;;11.73;100.00;101706.28;5030651;28;21307;-77
2022/07/26 02:12:04;;;;;;;1.55;0.95;;;;;;;11.76;99.28;101719.44;5013703;28;20106;-75
2022/07/26 02:14:30;;;;;;;2.15;1.10;;;;;;;11.76;99.41;101707.81;5010536;28;20300;-77
2022/07/26 02:16:58;;;;;;;4.85;1.23;;;;;;;11.83;99.05;101714.28;5061702;28;20047;-74
2022/07/26 02:19:26;;;;;;;6.53;1.65;;;;;;;11.81;98.91;101694.72;5014855;28;20089;-75
2022/07/26 02:21:51;;;;;;;2.75;1.10;;;;;;;11.72;98.92;101674.09;5042141;28;20492;-76
2022/07/26 02:24:17;;;;;;;3.70;1.27;;;;;;;11.73;99.93;101700.06;5028403;28;20068;-78
2022/07/26 02:26:43;;;;;;;5.40;1.00;;;;;;;11.69;100.00;101717.53;5016646;28;20041;-76
2022/07/26 02:29:08;;;;;;;5.03;1.35;;;;;;;11.62;100.00;101702.03;5031362;28;20117;-75
2022/07/26 02:31:34;;;;;;;7.60;1.40;;;;;;;11.57;100.00;101690.03;5058744;28;20040;-75
2022/07/26 02:33:59;;;;;;;4.38;1.27;;;;;;;11.66;100.00;101705.22;5039596;28;20075;-77
2022/07/26 02:36:25;;;;;;;4.25;1.30;;;;;;;11.68;100.00;101713.16;5041856;28;20029;-75
2022/07/26 02:38:51;;;;;;;7.00;1.30;;;;;;;11.66;100.00;101702.53;5016986;28;20497;-74
2022/07/26 02:41:16;;;;;;;7.82;2.25;;;;;;;11.62;100.00;101687.72;5016190;28;20101;-75
2022/07/26 02:43:42;;;;;;;1.67;0.95;;;;;;;11.68;100.00;101697.00;5017346;28;20032;-74
2022/07/26 02:46:08;;;;;;;4.88;1.10;;;;;;;11.61;100.00;101684.16;5008018;28;20044;-74
2022/07/26 02:48:33;;;;;;;3.65;1.17;;;;;;;11.62;100.00;101688.56;5032696;28;20036;-75
2022/07/26 02:50:59;;;;;;;6.03;1.23;;;;;;;11.63;100.00;101692.09;5017855;28;20058;-75
2022/07/26 02:53:24;;;;;;;3.15;1.38;;;;;;;11.37;100.00;101652.53;5021630;28;20040;-75
2022/07/26 02:55:50;;;;;;;2.13;0.85;;;;;;;11.58;100.00;101699.81;5052120;28;20527;-75
2022/07/26 02:58:16;;;;;;;5.50;1.30;;;;;;;11.60;100.00;101703.19;5027989;28;20158;-75
2022/07/26 03:00:42;;;;;;;2.83;1.25;;;;;;;11.52;100.00;101685.13;5036281;28;20394;-75
2022/07/26 03:03:07;;;;;;;4.57;1.45;;;;;;;11.47;100.00;101678.53;5040891;28;20032;-75
2022/07/26 03:05:33;;;;;;;4.90;1.35;;;;;;;11.43;100.00;101676.16;5063527;28;20041;-77
2022/07/26 03:08:04;;;;;;;5.25;1.10;;;;;;;11.51;100.00;101690.66;5030407;28;22341;-75
2022/07/26 03:10:29;;;;;;;3.90;1.23;;;;;;;11.51;100.00;101682.59;5023496;28;20165;-76
2022/07/26 03:12:55;;;;;;;5.20;1.27;;;;;;;11.53;100.00;101694.88;5022778;28;20087;-75
2022/07/26 03:15:21;;;;;;;5.85;1.35;;;;;;;11.52;100.00;101693.22;5049401;28;20032;-75
2022/07/26 03:17:47;;;;;;;9.70;1.67;;;;;;;11.49;100.00;101688.16;5031503;28;20040;-74
2022/07/26 03:20:12;;;;;;;1.80;1.02;;;;;;;11.51;100.00;101696.91;5030777;28;20036;-74
2022/07/26 03:22:38;;;;;;;2.83;1.27;;;;;;;11.47;100.00;101697.38;5035546;28;20043;-75
2022/07/26 03:25:04;;;;;;;2.33;1.20;;;;;;;11.41;100.00;101688.94;5049489;28;20520;-75
2022/07/26 03:27:30;;;;;;;4.95;1.25;;;;;;;11.40;100.00;101699.84;5029926;28;20044;-74
2022/07/26 03:29:55;;;;;;;5.18;1.20;;;;;;;11.34;100.00;101700.50;5054606;28;20028;-74
2022/07/26 03:32:21;;;;;;;3.38;1.40;;;;;;;11.20;100.00;101685.75;5006441;28;20033;-76
2022/07/26 03:34:46;;;;;;;5.25;1.35;;;;;;;11.13;100.00;101696.31;5053153;28;20390;-74
2022/07/26 03:37:12;;;;;;;3.58;1.38;;;;;;;10.98;100.00;101687.97;5038502;28;20072;-74
2022/07/26 03:39:39;;;;;;;5.63;1.30;;;;;;;10.82;100.00;101695.88;5037506;28;20702;-74
2022/07/26 03:42:05;;;;;;;3.13;1.38;;;;;;;10.66;100.00;101701.09;5022794;28;20199;-74
2022/07/26 03:44:30;;;;;;;7.65;1.85;;;;;;;10.47;100.00;101689.47;5041778;28;20127;-74
2022/07/26 03:46:56;;;;;;;8.15;1.50;;;;;;;10.35;100.00;101685.34;5015747;28;20086;-75
2022/07/26 03:49:22;;;;;;;4.15;1.10;;;;;;;10.24;100.00;101690.88;5019164;28;20136;-75
2022/07/26 03:51:47;;;;;;;3.72;1.27;;;;;;;10.16;100.00;101696.16;5008536;28;20222;-74
2022/07/26 03:54:13;;;;;;;5.07;2.20;;;;;;;10.04;100.00;101687.47;5044072;28;20086;-74
2022/07/26 03:56:42;;;;;;;8.35;1.20;;;;;;;9.86;100.00;101685.56;5036710;28;20094;-75
2022/07/26 03:59:09;;;;;;;4.95;1.10;;;;;;;9.78;100.00;101693.53;5023586;28;20028;-74
2022/07/26 04:01:40;;;;;;;1.27;0.73;;;;;;;9.67;100.00;101689.19;5010581;28;20033;-75
2022/07/26 04:04:08;;;;;;;8.15;1.23;;;;;;;9.69;100.00;101689.88;5027599;28;20402;-74
2022/07/26 04:06:35;;;;;;;4.35;1.50;;;;;;;9.57;100.00;101672.25;5024116;28;21507;-75
2022/07/26 04:09:01;;;;;;;7.53;1.52;;;;;;;9.69;100.00;101697.09;5031530;28;20205;-76
2022/07/26 04:11:26;;;;;;;4.50;2.45;;;;;;;9.59;100.00;101678.34;5040250;28;20514;-74
2022/07/26 04:13:52;;;;;;;4.90;1.60;;;;;;;9.75;100.00;101692.97;5052736;28;20040;-74
2022/07/26 04:16:18;;;;;;;3.53;1.30;;;;;;;9.82;100.00;101699.47;5036201;28;20035;-74
2022/07/26 04:18:44;;;;;;;2.05;1.17;;;;;;;9.92;100.00;101686.81;5042895;28;20040;-74
2022/07/26 04:21:12;;;;;;;7.20;1.48;;;;;;;10.09;100.00;101701.31;5031836;28;20040;-76
2022/07/26 04:23:53;;;;;;;6.45;1.48;;;;;;;10.20;100.00;101697.56;4985101;28;20293;-75
2022/07/26 04:26:20;;;;;;;9.20;1.48;;;;;;;10.27;100.00;101701.34;5062254;28;20040;-75
2022/07/26 04:28:46;;;;;;;5.35;1.60;;;;;;;10.31;100.00;101700.06;5022067;28;20047;-74
2022/07/26 04:31:11;;;;;;;4.20;1.73;;;;;;;10.32;100.00;101697.25;5048146;28;20036;-75
2022/07/26 04:33:37;;;;;;;6.32;2.38;;;;;;;10.40;100.00;101704.56;5028878;28;20081;-74
2022/07/26 04:36:03;;;;;;;3.33;1.52;;;;;;;10.41;100.00;101695.47;5029719;28;20036;-74
2022/07/26 04:38:29;;;;;;;5.15;1.90;;;;;;;10.52;100.00;101699.78;5049214;28;20490;-74
2022/07/26 04:40:56;;;;;;;4.50;1.55;;;;;;;10.53;100.00;101694.28;5033765;28;20119;-76
2022/07/26 04:43:23;;;;;;;8.02;1.65;;;;;;;10.62;100.00;101699.72;5028666;28;20028;-75
2022/07/26 04:45:49;;;;;;;9.10;1.75;;;;;;;10.54;100.00;101684.34;5044330;28;20032;-75
2022/07/26 04:48:15;;;;;;;5.22;2.35;;;;;;;10.64;100.00;101700.41;5010779;28;20045;-75
2022/07/26 04:50:41;;;;;;;5.60;1.65;;;;;;;10.69;100.00;101701.66;5043360;28;20474;-76
2022/07/26 04:53:09;;;;;;;6.35;1.80;;;;;;;10.68;100.00;101704.50;5052243;28;20449;-75
2022/07/26 04:55:36;;;;;;;7.05;1.67;;;;;;;10.76;100.00;101715.31;5050558;28;20033;-75
2022/07/26 04:58:01;;;;;;;3.67;1.45;;;;;;;10.77;100.00;101711.66;5013755;28;20038;-76
2022/07/26 05:00:27;;;;;;;9.30;1.70;;;;;;;10.77;100.00;101711.66;5033011;28;20033;-78
2022/07/26 05:02:56;;;;;;;5.60;2.00;;;;;;;10.70;100.00;101695.28;5059011;28;20033;-75
2022/07/26 05:05:23;;;;;;;6.90;1.70;;;;;;;10.75;100.00;101695.66;5010632;28;20029;-75
2022/07/26 05:07:54;;;;;;;5.22;1.80;;;;;;;10.81;100.00;101712.19;5042369;28;20056;-75
2022/07/26 05:10:26;;;;;;;7.97;1.80;;;;;;;10.86;100.00;101712.56;5063066;28;20093;-75
2022/07/26 05:12:55;;;;;;;5.40;2.05;;;;;;;10.86;100.00;101715.25;5028683;28;20044;-75
2022/07/26 05:15:39;;;;;;;9.25;1.90;;;;;;;10.87;100.00;101717.78;5026844;28;20085;-76
2022/07/26 05:18:07;;;;;;;3.47;1.60;;;;;;;10.90;100.00;101724.69;5041851;28;20390;-75
2022/07/26 05:20:33;;;;;;;2.70;1.15;;;;;;;10.94;100.00;101723.41;5042810;28;20404;-75
2022/07/26 05:23:22;;;;;;;3.13;1.58;;;;;;;11.04;100.00;101726.84;5031885;28;20064;-76
2022/07/26 05:26:13;;;;;;;7.47;1.63;;;;;;;11.13;100.00;101717.84;5022827;28;20415;-76
2022/07/26 05:28:42;;;;;;;7.10;2.08;;;;;;;11.19;100.00;101729.81;5044137;28;20490;-77
2022/07/26 05:31:08;;;;;;;4.60;1.55;;;;;;;11.31;100.00;101728.59;5045898;28;20490;-75
2022/07/26 05:33:33;;;;;;;5.80;1.83;;;;;;;11.41;100.00;101731.19;5068759;28;20036;-76
2022/07/26 05:35:59;;;;;;;5.97;1.58;;;;;;;11.50;100.00;101730.22;5021662;28;20509;-75
2022/07/26 05:38:24;;;;;;;5.47;2.35;;;;;;;11.53;100.00;101734.44;5016023;28;20036;-75
2022/07/26 05:40:50;;;;;;;6.80;2.00;;;;;;;11.59;100.00;101739.19;5044011;28;20071;-75
2022/07/26 05:43:16;;;;;;;5.63;1.77;;;;;;;11.63;100.00;101746.81;5046232;28;20036;-76
2022/07/26 05:45:41;;;;;;;5.38;1.55;;;;;;;11.66;100.00;101740.25;5028506;28;20035;-75
2022/07/26 05:48:07;;;;;;;7.90;1.75;;;;;;;11.69;100.00;101737.25;5013177;28;20029;-74
2022/07/26 05:50:33;;;;;;;4.40;1.77;;;;;;;11.78;100.00;101733.59;5030418;28;20283;-75
2022/07/26 05:52:59;;;;;;;7.90;1.83;;;;;;;11.83;100.00;101747.44;5028634;28;20035;-75
2022/07/26 05:55:25;;;;;;;8.73;1.55;;;;;;;11.90;100.00;101752.22;5015047;28;20029;-74
2022/07/26 05:57:51;;;;;;;8.23;1.70;;;;;;;11.91;100.00;101748.50;5025656;28;20052;-75
2022/07/26 06:00:17;;;;;;;4.20;1.77;;;;;;;11.97;100.00;101754.13;5025047;28;20063;-77
2022/07/26 06:02:42;;;;;;;4.07;1.50;;;;;;;11.91;100.00;101735.91;5027398;28;20048;-75
2022/07/26 06:05:08;;;;;;;6.85;1.50;;;;;;;12.02;100.00;101757.19;5032310;28;20032;-76
2022/07/26 06:07:34;;;;;;;2.78;1.27;;;;;;;12.02;100.00;101746.38;5049695;28;20033;-76
2022/07/26 06:10:00;;;;;;;7.45;1.95;;;;;;;12.08;100.00;101755.69;5042285;28;20402;-75
2022/07/26 06:12:25;;;;;;;6.50;1.70;;;;;;;12.12;100.00;101757.06;5044984;28;20129;-76
2022/07/26 06:14:51;;;;;;;4.30;1.63;;;;;;;12.07;100.00;101741.38;5039796;28;20139;-75
2022/07/26 06:17:17;;;;;;;7.43;1.67;;;;;;;12.17;100.00;101753.84;5026375;28;20036;-76
2022/07/26 06:19:42;;;;;;;7.47;1.77;;;;;;;12.15;100.00;101751.34;5008835;28;21175;-75
2022/07/26 06:22:10;;;;;;;6.60;1.45;;;;;;;12.26;100.00;101745.66;5033694;28;20028;-75
2022/07/26 06:24:36;;;;;;;2.70;1.42;;;;;;;12.43;99.77;101761.88;5015326;28;20062;-76
2022/07/26 06:27:05;;;;;;;6.97;2.30;;;;;;;12.47;99.33;101761.41;5032734;28;20483;-77
2022/07/26 06:29:30;;;;;;;5.72;1.65;;;;;;;12.57;97.90;101763.09;5029577;28;20028;-75
2022/07/26 06:31:56;;;;;;;3.88;0.90;;;;;;;12.62;97.64;101763.47;5050747;28;20036;-75
2022/07/26 06:34:25;;;;;;;5.07;1.20;;;;;;;12.70;97.33;101767.03;5035099;28;20036;-75
2022/07/26 06:36:57;;;;;;;4.28;1.45;;;;;;;12.76;96.25;101765.53;5018276;28;20131;-76
2022/07/26 06:39:24;;;;;;;8.73;1.30;;;;;;;12.75;95.31;101759.28;5031871;28;20045;-75
2022/07/26 06:41:49;;;;;;;4.43;1.42;;;;;;;12.91;95.01;101765.72;5040151;28;20503;-75
2022/07/26 06:44:15;;;;;;;7.20;1.42;;;;;;;12.97;94.41;101767.75;5021334;28;20085;-76
2022/07/26 06:46:44;;;;;;;4.90;1.40;;;;;;;13.04;93.02;101773.31;5043910;28;20036;-75
2022/07/26 06:49:09;;;;;;;2.17;1.10;;;;;;;13.05;93.00;101756.97;5023082;28;20124;-75
2022/07/26 06:51:35;;;;;;;2.08;1.10;;;;;;;13.11;90.78;101771.66;5052641;28;20150;-74
2022/07/26 06:54:02;;;;;;;2.05;1.05;;;;;;;13.12;90.43;101771.47;5038657;28;20371;-77
2022/07/26 06:56:27;;;;;;;2.15;1.00;;;;;;;13.13;90.49;101769.63;5048067;28;20039;-75
2022/07/26 06:58:54;;;;;;;2.40;1.63;;;;;;;13.16;88.85;101775.53;5033813;28;20044;-75
2022/07/26 07:01:20;;;;;;;3.30;0.90;;;;;;;13.14;89.48;101768.59;5040968;28;20519;-76
2022/07/26 07:03:46;;;;;;;3.05;1.27;;;;;;;13.15;89.56;101772.97;5030365;28;20037;-75
2022/07/26 07:06:12;;;;;;;6.70;1.40;;;;;;;13.22;89.11;101775.88;5033074;28;20048;-76
2022/07/26 07:08:38;;;;;;;4.47;1.40;;;;;;;13.29;88.79;101766.97;5059104;28;20123;-75
2022/07/26 07:11:03;;;;;;;3.65;1.45;;;;;;;13.37;87.05;101777.75;5005538;28;20052;-75
2022/07/26 07:13:29;;;;;;;2.60;1.83;;;;;;;13.43;87.08;101778.94;5020009;28;20041;-75
2022/07/26 07:16:01;;;;;;;4.80;1.40;;;;;;;13.49;87.13;101789.06;5018868;28;20040;-76
2022/07/26 07:18:27;;;;;;;4.63;1.20;;;;;;;13.57;84.72;101788.22;5034730;28;20478;-75
2022/07/26 07:20:53;;;;;;;5.25;1.52;;;;;;;13.61;84.83;101784.16;5011061;28;20064;-76
2022/07/26 07:23:21;;;;;;;3.33;1.23;;;;;;;13.67;84.01;101778.06;5012463;28;20044;-75
2022/07/26 07:25:48;;;;;;;3.38;1.45;;;;;;;13.73;83.38;101777.38;5025014;28;20040;-75
2022/07/26 07:28:14;;;;;;;4.30;1.23;;;;;;;13.92;83.32;101794.22;5030229;28;20025;-76
2022/07/26 07:30:40;;;;;;;4.38;1.45;;;;;;;14.08;81.92;101791.50;5024139;28;20036;-76
2022/07/26 07:33:08;;;;;;;3.25;1.20;;;;;;;14.14;81.18;101788.09;5019439;28;20033;-75
2022/07/26 07:35:34;;;;;;;6.93;1.15;;;;;;;14.04;81.49;101761.25;5045428;28;20059;-74
2022/07/26 07:37:59;;;;;;;4.40;1.13;;;;;;;14.27;81.21;101804.63;5054529;28;20410;-75
2022/07/26 07:40:25;;;;;;;2.30;1.23;;;;;;;14.24;80.11;101796.88;5027135;28;20036;-74
2022/07/26 07:42:51;;;;;;;4.88;1.23;;;;;;;14.33;80.64;101805.78;5014484;28;20068;-75
2022/07/26 07:45:16;;;;;;;2.85;1.17;;;;;;;14.40;80.96;101808.66;5006448;28;20120;-76
2022/07/26 07:47:48;;;;;;;11.32;1.52;;;;;;;14.58;81.15;101811.09;5066357;28;20040;-77
2022/07/26 07:50:14;;;;;;;3.65;1.45;;;;;;;14.71;79.06;101805.97;5029197;28;20107;-75
2022/07/26 07:52:41;;;;;;;3.17;1.30;;;;;;;14.88;77.86;101817.56;5010683;28;20143;-76
2022/07/26 07:55:08;;;;;;;2.38;0.98;;;;;;;14.95;77.62;101802.28;5029453;28;20120;-75
2022/07/26 07:57:35;;;;;;;5.78;1.25;;;;;;;15.05;75.60;101796.63;5036847;28;20040;-75
2022/07/26 08:00:09;;;;;;;3.25;1.17;;;;;;;15.12;76.20;101808.44;5044537;28;20549;-75
2022/07/26 08:02:35;;;;;;;5.53;1.30;;;;;;;15.24;75.42;101807.00;5035390;28;20063;-75
2022/07/26 08:05:01;;;;;;;3.00;1.40;;;;;;;15.35;75.23;101812.00;5011375;28;20483;-75
2022/07/26 08:07:31;;;;;;;3.53;1.13;;;;;;;15.42;75.01;101819.38;5011101;28;20036;-76
2022/07/26 08:09:59;;;;;;;7.95;1.60;;;;;;;15.40;74.61;101819.59;5030170;28;20043;-76
2022/07/26 08:12:25;;;;;;;5.80;1.55;;;;;;;15.39;74.13;101816.00;5023784;28;20394;-75
2022/07/26 08:14:51;;;;;;;2.78;1.35;;;;;;;15.47;75.11;101819.69;5011746;28;20486;-75
2022/07/26 08:17:16;;;;;;;2.00;1.30;;;;;;;15.53;73.93;101818.94;5026058;28;20036;-77
2022/07/26 08:19:42;;;;;;;3.33;1.10;;;;;;;15.65;73.74;101819.38;5016286;28;20414;-78
2022/07/26 08:22:08;;;;;;;2.13;1.17;;;;;;;15.83;71.56;101817.19;5040440;28;20028;-78
2022/07/26 08:24:34;;;;;;;5.50;1.40;;;;;;;15.91;72.36;101827.13;5036356;28;20071;-77
2022/07/26 08:27:00;;;;;;;5.10;1.27;;;;;;;16.04;71.09;101830.88;5070721;28;20287;-76
2022/07/26 08:29:25;;;;;;;5.80;1.65;;;;;;;16.20;70.20;101834.44;5017245;28;20563;-78
2022/07/26 08:31:51;;;;;;;5.78;1.25;;;;;;;16.31;69.06;101833.13;5037546;28;20041;-75
2022/07/26 08:34:17;;;;;;;4.03;1.20;;;;;;;16.57;67.86;101838.91;5051495;28;20111;-77
2022/07/26 08:36:44;;;;;;;3.22;1.17;;;;;;;16.60;65.71;101796.97;5048231;28;20032;-76
2022/07/26 08:39:09;;;;;;;2.35;1.13;;;;;;;17.03;66.37;101825.06;5032600;28;20036;-76
2022/07/26 08:41:35;;;;;;;3.47;1.27;;;;;;;17.30;64.69;101838.94;5036533;28;20036;-77
2022/07/26 08:44:10;;;;;;;6.75;1.65;;;;;;;17.37;63.52;101831.69;5027519;28;20036;-76
2022/07/26 08:46:38;;;;;;;1.83;1.05;;;;;;;17.43;65.00;101836.34;5034418;28;20037;-79
2022/07/26 08:49:05;;;;;;;4.57;1.42;;;;;;;17.66;64.27;101840.72;5059069;28;20029;-75
2022/07/26 08:51:32;;;;;;;3.63;1.38;;;;;;;17.79;63.44;101843.59;5053589;28;20043;-76
2022/07/26 08:54:00;;;;;;;4.15;1.60;;;;;;;18.05;60.56;101833.91;5050371;28;20042;-74
2022/07/26 08:56:26;;;;;;;4.68;1.70;;;;;;;18.18;60.98;101842.19;5019580;28;20025;-76
2022/07/26 08:58:51;;;;;;;2.22;1.10;;;;;;;18.55;58.72;101834.63;5068741;28;20036;-79
2022/07/26 09:01:17;;;;;;;5.70;1.88;;;;;;;19.11;56.04;101838.00;5038335;28;20029;-75
2022/07/26 09:03:44;;;;;;;13.32;1.85;;;;;;;20.27;53.05;101835.91;5035014;28;20390;-76
2022/07/26 09:06:17;;;;;;;3.70;1.30;;;;;;;20.76;51.60;101834.53;5024381;28;20028;-75
2022/07/26 09:08:44;;;;;;;6.75;1.60;;;;;;;20.46;52.18;101837.78;5050071;28;20274;-74
2022/07/26 09:11:22;;;;;;;9.43;2.13;;;;;;;20.13;51.42;101827.75;5033637;28;20070;-76
2022/07/26 09:13:54;;;;;;;5.55;1.88;;;;;;;19.66;53.19;101826.09;5071182;28;20181;-74
2022/07/26 09:16:19;;;;;;;9.18;2.53;;;;;;;19.29;55.06;101821.06;5047351;28;20024;-74
2022/07/26 09:18:45;;;;;;;7.43;1.75;;;;;;;19.43;55.55;101829.25;5060286;28;20039;-77
2022/07/26 09:21:30;;;;;;;7.72;1.67;;;;;;;19.68;53.18;101815.84;5042622;28;20028;-78
2022/07/26 09:23:56;;;;;;;9.52;2.05;;;;;;;19.90;54.28;101830.97;5019972;28;20041;-74
2022/07/26 09:26:22;;;;;;;4.97;1.40;;;;;;;20.26;52.77;101823.34;5037896;28;20482;-77
2022/07/26 09:29:02;;;;;;;4.32;1.38;;;;;;;20.78;51.50;101829.69;5042675;28;20037;-78
2022/07/26 09:31:28;;;;;;;10.85;1.90;;;;;;;21.67;48.22;101814.16;5058520;28;20031;-74
2022/07/26 09:33:58;;;;;;;5.07;1.63;;;;;;;22.12;46.50;101823.03;5055819;28;20402;-78
2022/07/26 09:36:25;;;;;;;9.75;1.80;;;;;;;22.41;47.29;101817.03;5036452;28;20410;-75
2022/07/26 09:38:53;;;;;;;5.28;1.65;;;;;;;22.62;45.16;101819.28;5037157;28;20055;-75
2022/07/26 09:41:28;;;;;;;3.67;1.52;;;;;;;22.77;44.49;101821.63;5046847;28;20025;-76
2022/07/26 09:43:55;;;;;;;4.90;1.50;;;;;;;22.51;43.99;101823.63;5038948;28;20397;-75
2022/07/26 09:46:22;;;;;;;7.45;1.80;;;;;;;22.40;44.56;101827.16;5047739;28;20028;-78
2022/07/26 09:48:48;;;;;;;2.90;1.35;;;;;;;22.57;42.84;101824.63;5041849;28;20028;-76
2022/07/26 09:51:13;;;;;;;4.05;1.50;;;;;;;22.91;42.47;101823.13;5052987;28;20078;-77
2022/07/26 09:53:44;;;;;;;3.50;1.25;;;;;;;24.73;39.13;101823.41;5044217;28;20394;-77
2022/07/26 09:56:09;;;;;;;3.72;1.27;;;;;;;24.09;40.74;101812.41;5030520;28;20486;-78
2022/07/26 09:58:36;;;;;;;6.40;1.25;;;;;;;23.64;39.45;101834.94;5023961;28;20127;-76
2022/07/26 10:01:04;;;;;;;2.55;1.00;;;;;;;22.50;41.53;101823.88;5018929;28;20038;-75
2022/07/26 10:03:30;;;;;;;2.45;1.08;;;;;;;21.84;43.21;101820.75;5031971;28;20039;-78
2022/07/26 10:06:00;;;;;;;4.22;1.25;;;;;;;22.20;43.30;101827.38;5048931;28;20042;-77
2022/07/26 10:08:26;;;;;;;2.40;0.90;;;;;;;22.41;43.06;101825.25;5056020;28;20060;-76
2022/07/26 10:10:59;;;;;;;5.45;1.20;;;;;;;22.31;43.92;101826.63;5032240;28;20032;-77
2022/07/26 10:13:26;;;;;;;3.80;1.10;;;;;;;22.14;41.52;101822.78;5040702;28;20093;-76
2022/07/26 10:15:52;;;;;;;2.53;1.00;;;;;;;21.94;42.43;101832.03;5035201;28;20041;-75
2022/07/26 10:18:36;;;;;;;1.63;0.85;;;;;;;21.48;43.61;101835.16;5061483;28;20078;-75
2022/07/26 10:21:18;;;;;;;4.47;1.20;;;;;;;21.29;42.66;101837.78;5035649;28;20036;-75
2022/07/26 10:23:45;;;;;;;2.63;1.00;;;;;;;21.29;42.27;101836.97;5024990;28;20045;-75
2022/07/26 10:26:31;;;;;;;1.75;0.95;;;;;;;21.27;41.90;101834.44;5041438;28;20032;-76
2022/07/26 10:29:15;;;;;;;1.45;0.90;;;;;;;21.63;42.46;101837.59;5054666;28;20086;-76
2022/07/26 10:31:59;;;;;;;3.00;0.98;;;;;;;21.95;39.96;101836.44;5052745;28;20044;-78
2022/07/26 10:34:34;;;;;;;1.90;1.00;;;;;;;22.33;40.02;101829.13;5065677;28;20186;-75
2022/07/26 10:37:19;;;;;;;4.72;1.45;;;;;;;23.01;39.11;101823.44;5030743;28;20064;-75
2022/07/26 10:39:44;;;;;;;3.63;1.10;;;;;;;24.92;35.54;101827.59;5018259;28;20052;-75
2022/07/26 10:42:10;;;;;;;3.63;1.15;;;;;;;24.52;36.45;101827.63;5053195;28;20029;-77
2022/07/26 10:44:44;;;;;;;3.60;0.90;;;;;;;24.29;37.66;101801.84;5069673;28;20030;-77
2022/07/26 10:47:14;;;;;;;2.65;0.93;;;;;;;24.29;38.37;101820.25;5048360;28;20352;-78
2022/07/26 10:49:58;;;;;;;3.63;0.90;;;;;;;24.07;38.35;101826.38;5037005;28;20040;-79
2022/07/26 10:52:26;;;;;;;4.00;1.08;;;;;;;23.89;38.79;101829.22;5052007;28;20032;-78
2022/07/26 10:54:58;;;;;;;1.77;0.85;;;;;;;23.53;38.54;101830.28;5039191;28;20029;-78
2022/07/26 10:57:32;;;;;;;1.42;1.10;;;;;;;23.09;38.49;101824.19;5032026;28;20502;-77
2022/07/26 10:59:58;;;;;;;0.85;0.50;;;;;;;22.75;36.56;101824.59;5020316;28;20451;-75
2022/07/26 11:02:31;;;;;;;1.27;0.70;;;;;;;22.82;35.47;101825.34;5041129;28;20036;-76
2022/07/26 11:05:01;;;;;;;1.00;0.70;;;;;;;22.58;36.58;101826.31;5021683;28;20051;-77
2022/07/26 11:07:27;;;;;;;0.73;0.50;;;;;;;22.28;35.09;101826.22;5033743;28;20043;-75
2022/07/26 11:09:56;;;;;;;0.73;0.60;;;;;;;22.03;35.44;101827.09;5014686;28;20383;-76
2022/07/26 11:12:22;;;;;;;0.60;0.60;;;;;;;22.08;35.92;101816.31;5021186;28;20123;-77
2022/07/26 11:14:49;;;;;;;1.30;0.60;;;;;;;22.34;35.37;101833.56;5042826;28;20085;-78
2022/07/26 11:17:27;;;;;;;0.75;0.63;;;;;;;22.63;34.45;101825.63;5032477;28;20075;-77
2022/07/26 11:19:53;;;;;;;0.57;0.52;;;;;;;22.66;35.27;101823.25;5033747;28;20085;-75
2022/07/26 11:22:19;;;;;;;0.73;0.73;;;;;;;23.06;34.52;101825.47;5017653;28;20037;-77
2022/07/26 11:24:45;;;;;;;0.93;0.70;;;;;;;23.12;34.59;101807.25;5028156;28;20032;-76
2022/07/26 11:27:11;;;;;;;0.60;0.60;;;;;;;23.68;34.88;101831.47;5053245;28;20031;-75